Monte Vera, Argentina
Current Conditions -  °F | °C
As of 7:00 PM on Monday 22 Dec 2014 (Local Time) from SAAR Reporting Station
Clear Clear  
Wind Chill: 72°   Ceiling: Unl
Heat Index: 72°   Visibility: 6mi
Dew Point: 39°   Wind: 10mph
Humidity: 31%   Direction: 160°SSE
Pressure: 30.12"   Gusts: NA
Location:  31.52°S, 60.67°W
Report Text: SAAR 222200Z 16009KT CAVOK 22/04 Q1020
Loading
Personal Weather Stations






























Interactive Weather Map New forecast layout! Learn more

10-Day Weather Forecast

Advertisements
Track Severe Weather on mobile